createdAt,value
2018-05-27T00:00:13.689Z,9.00
2018-05-27T00:02:41.949Z,9.73
2018-05-27T00:05:10.247Z,8.67
2018-05-27T00:07:38.508Z,8.50
2018-05-27T00:10:06.788Z,8.60
2018-05-27T00:12:35.053Z,9.03
2018-05-27T00:15:02.569Z,8.80
2018-05-27T00:17:30.065Z,8.40
2018-05-27T00:19:57.580Z,8.73
2018-05-27T00:22:25.081Z,7.80
2018-05-27T00:24:52.596Z,8.77
2018-05-27T00:27:20.132Z,8.20
2018-05-27T00:29:47.689Z,9.23
2018-05-27T00:32:15.197Z,9.50
2018-05-27T00:34:42.691Z,9.43
2018-05-27T00:37:10.973Z,9.57
2018-05-27T00:39:39.256Z,9.70
2018-05-27T00:42:06.782Z,10.77
2018-05-27T00:44:34.285Z,10.53
2018-05-27T00:47:01.837Z,11.97
2018-05-27T00:49:29.397Z,11.23
2018-05-27T00:51:56.918Z,12.17
2018-05-27T00:54:24.520Z,12.37
2018-05-27T00:56:52.062Z,12.60
2018-05-27T00:59:20.329Z,11.40
2018-05-27T01:01:48.612Z,10.90
2018-05-27T01:04:16.888Z,11.30
2018-05-27T01:06:45.192Z,10.80
2018-05-27T01:09:12.704Z,10.17
2018-05-27T01:11:40.207Z,11.80
2018-05-27T01:14:07.750Z,10.70
2018-05-27T01:16:35.257Z,10.80
2018-05-27T01:19:02.781Z,9.73
2018-05-27T01:21:30.281Z,11.63
2018-05-27T01:23:57.797Z,11.40
2018-05-27T01:26:25.299Z,11.00
2018-05-27T01:28:53.592Z,10.77
2018-05-27T01:31:21.856Z,11.20
2018-05-27T01:33:49.384Z,11.43
2018-05-27T01:36:16.884Z,10.83
2018-05-27T01:38:45.212Z,9.97
2018-05-27T01:41:12.728Z,11.13
2018-05-27T01:43:41.011Z,10.83
2018-05-27T01:46:09.284Z,11.07
2018-05-27T01:48:37.585Z,10.60
2018-05-27T01:51:05.084Z,10.37
2018-05-27T01:53:32.590Z,10.90
2018-05-27T01:56:00.105Z,10.47
2018-05-27T01:58:27.707Z,10.53
2018-05-27T02:00:55.282Z,11.23
2018-05-27T02:03:22.787Z,11.20
2018-05-27T02:05:50.381Z,9.47
2018-05-27T02:08:17.944Z,10.13
2018-05-27T02:10:45.471Z,10.20
2018-05-27T02:13:12.968Z,11.17
2018-05-27T02:15:40.493Z,10.07
2018-05-27T02:18:08.756Z,9.30
2018-05-27T02:20:36.268Z,9.63
2018-05-27T02:23:03.768Z,10.17
2018-05-27T02:25:31.283Z,10.30
2018-05-27T02:27:59.020Z,11.13
2018-05-27T02:30:27.317Z,10.30
2018-05-27T02:32:54.821Z,10.63
2018-05-27T02:35:22.330Z,10.87
2018-05-27T02:37:49.852Z,12.20
2018-05-27T02:40:17.352Z,10.63
2018-05-27T02:42:44.873Z,10.60
2018-05-27T02:45:13.177Z,9.90
2018-05-27T02:47:40.700Z,9.70
2018-05-27T02:50:08.213Z,10.40
2018-05-27T02:52:35.741Z,10.33
2018-05-27T02:55:04.015Z,10.17
2018-05-27T02:57:32.301Z,10.90
2018-05-27T02:59:59.801Z,11.40
2018-05-27T03:02:27.336Z,10.27
2018-05-27T03:04:55.196Z,9.57
2018-05-27T03:07:22.718Z,9.67
2018-05-27T03:09:50.976Z,9.50
2018-05-27T03:12:18.488Z,9.70
2018-05-27T03:14:45.998Z,9.80
2018-05-27T03:17:13.512Z,9.70
2018-05-27T03:19:41.273Z,9.07
2018-05-27T03:22:08.770Z,9.10
2018-05-27T03:24:36.284Z,9.67
2018-05-27T03:27:03.802Z,9.77
2018-05-27T03:29:31.384Z,9.13
2018-05-27T03:31:58.949Z,9.10
2018-05-27T03:34:27.033Z,8.87
2018-05-27T03:36:54.576Z,9.20
2018-05-27T03:39:22.093Z,8.47
2018-05-27T03:41:49.596Z,8.53
2018-05-27T03:44:17.120Z,9.00
2018-05-27T03:46:44.616Z,8.60
2018-05-27T03:49:12.131Z,9.30
2018-05-27T03:51:39.624Z,9.10
2018-05-27T03:54:07.140Z,9.13
2018-05-27T03:56:34.640Z,8.97
2018-05-27T03:59:02.160Z,8.70
2018-05-27T04:01:29.664Z,8.77
2018-05-27T04:04:09.004Z,9.33
2018-05-27T04:06:48.421Z,9.57
2018-05-27T04:09:16.705Z,9.43
2018-05-27T04:11:44.264Z,9.43
2018-05-27T04:14:11.782Z,8.10
2018-05-27T04:16:39.289Z,8.90
2018-05-27T04:19:06.809Z,9.13
2018-05-27T04:21:34.401Z,8.60
2018-05-27T04:24:01.918Z,7.87
2018-05-27T04:26:29.417Z,8.33
2018-05-27T04:28:56.948Z,9.53
2018-05-27T04:31:24.533Z,8.50
2018-05-27T04:33:52.031Z,8.80
2018-05-27T04:36:19.547Z,9.03
2018-05-27T04:38:47.045Z,7.63
2018-05-27T04:41:14.561Z,7.70
2018-05-27T04:43:42.823Z,8.23
2018-05-27T04:46:11.105Z,7.87
2018-05-27T04:48:39.377Z,7.63
2018-05-27T04:51:07.668Z,8.63
2018-05-27T04:53:35.225Z,8.00
2018-05-27T04:56:02.793Z,7.87
2018-05-27T04:58:30.293Z,9.60
2018-05-27T05:00:57.818Z,9.10
2018-05-27T05:03:25.317Z,8.30
2018-05-27T05:05:54.340Z,8.73
2018-05-27T05:08:22.604Z,8.00
2018-05-27T05:10:50.904Z,8.50
2018-05-27T05:13:18.401Z,7.83
2018-05-27T05:15:46.025Z,7.57
2018-05-27T05:18:13.593Z,7.93
2018-05-27T05:20:41.145Z,7.60
2018-05-27T05:23:08.649Z,8.37
2018-05-27T05:25:36.148Z,7.37
2018-05-27T05:28:04.428Z,8.13
2018-05-27T05:30:31.933Z,7.80
2018-05-27T05:32:59.448Z,7.97
2018-05-27T05:35:26.952Z,7.80
2018-05-27T05:37:54.471Z,7.70
2018-05-27T05:40:21.988Z,8.17
2018-05-27T05:42:49.507Z,7.73
2018-05-27T05:45:17.004Z,7.70
2018-05-27T05:47:44.532Z,7.43
2018-05-27T05:50:12.280Z,7.07
2018-05-27T05:52:39.800Z,8.10
2018-05-27T05:55:08.073Z,7.63
2018-05-27T05:57:36.376Z,7.30
2018-05-27T06:00:03.898Z,7.70
2018-05-27T06:02:31.488Z,7.80
2018-05-27T06:04:59.754Z,7.37
2018-05-27T06:07:28.037Z,6.57
2018-05-27T06:09:56.304Z,7.70
2018-05-27T06:12:24.600Z,8.10
2018-05-27T06:14:52.151Z,8.63
2018-05-27T06:17:20.447Z,8.00
2018-05-27T06:19:47.992Z,7.87
2018-05-27T06:22:15.498Z,7.97
2018-05-27T06:24:43.017Z,7.87
2018-05-27T06:27:10.511Z,7.13
2018-05-27T06:29:38.025Z,8.17
2018-05-27T06:32:05.545Z,7.77
2018-05-27T06:34:33.140Z,7.87
2018-05-27T06:37:00.717Z,7.60
2018-05-27T06:39:28.229Z,7.57
2018-05-27T06:41:55.820Z,6.73
2018-05-27T06:44:23.340Z,8.20
2018-05-27T06:46:50.945Z,8.00
2018-05-27T06:49:18.497Z,7.50
2018-05-27T06:51:45.997Z,7.40
2018-05-27T06:54:13.511Z,6.90
2018-05-27T06:56:41.398Z,7.50
2018-05-27T06:59:08.945Z,7.33
2018-05-27T07:01:36.456Z,7.10
2018-05-27T07:04:04.716Z,6.57
2018-05-27T07:06:32.438Z,6.37
2018-05-27T07:08:59.949Z,7.17
2018-05-27T07:11:27.461Z,6.60
2018-05-27T07:13:54.960Z,6.80
2018-05-27T07:16:22.472Z,7.07
2018-05-27T07:18:50.028Z,6.43
2018-05-27T07:21:17.592Z,6.80
2018-05-27T07:23:45.101Z,6.83
2018-05-27T07:26:12.623Z,6.70
2018-05-27T07:28:40.126Z,6.80
2018-05-27T07:31:07.712Z,7.07
2018-05-27T07:33:35.976Z,6.00
2018-05-27T07:36:04.248Z,7.10
2018-05-27T07:38:32.505Z,6.40
2018-05-27T07:41:00.110Z,6.93
2018-05-27T07:43:27.637Z,6.10
2018-05-27T07:45:55.151Z,6.80
2018-05-27T07:48:22.648Z,6.27
2018-05-27T07:50:50.164Z,6.90
2018-05-27T07:53:17.700Z,6.80
2018-05-27T07:55:45.265Z,7.20
2018-05-27T07:58:13.586Z,6.60
2018-05-27T08:00:41.040Z,6.57
2018-05-27T08:03:08.557Z,7.10
2018-05-27T08:05:36.104Z,7.30
2018-05-27T08:08:04.376Z,6.40
2018-05-27T08:10:32.660Z,6.70
2018-05-27T08:13:03.573Z,6.97
2018-05-27T08:15:31.155Z,7.07
2018-05-27T08:17:58.735Z,6.30
2018-05-27T08:20:26.285Z,7.13
2018-05-27T08:22:53.840Z,6.50
2018-05-27T08:25:21.338Z,6.20
2018-05-27T08:27:48.951Z,5.60
2018-05-27T08:30:16.454Z,6.30
2018-05-27T08:32:43.968Z,6.17
2018-05-27T08:35:11.469Z,6.10
2018-05-27T08:37:38.988Z,6.33
2018-05-27T08:40:06.549Z,5.83
2018-05-27T08:42:34.105Z,5.83
2018-05-27T08:45:01.619Z,6.00
2018-05-27T08:47:29.133Z,5.67
2018-05-27T08:49:56.628Z,6.33
2018-05-27T08:52:24.172Z,6.33
2018-05-27T08:54:51.672Z,6.47
2018-05-27T08:57:20.058Z,6.50
2018-05-27T08:59:47.556Z,6.23
2018-05-27T09:02:15.055Z,6.93
2018-05-27T09:04:42.573Z,6.77
2018-05-27T09:07:10.073Z,6.60
2018-05-27T09:09:37.594Z,6.87
2018-05-27T09:12:05.093Z,7.03
2018-05-27T09:14:32.617Z,6.60
2018-05-27T09:17:00.880Z,7.30
2018-05-27T09:19:28.401Z,6.03
2018-05-27T09:21:56.669Z,6.30
2018-05-27T09:24:24.966Z,6.90
2018-05-27T09:26:52.460Z,6.77
2018-05-27T09:29:19.973Z,5.67
2018-05-27T09:31:48.250Z,6.70
2018-05-27T09:34:16.533Z,6.50
2018-05-27T09:36:44.093Z,5.73
2018-05-27T09:39:11.631Z,5.90
2018-05-27T09:41:39.124Z,6.03
2018-05-27T09:44:06.638Z,6.80
2018-05-27T09:46:34.141Z,6.20
2018-05-27T09:49:01.642Z,6.43
2018-05-27T09:51:29.196Z,6.37
2018-05-27T09:53:56.676Z,6.47
2018-05-27T09:56:24.192Z,6.03
2018-05-27T09:58:51.693Z,6.20
2018-05-27T10:01:19.976Z,6.37
2018-05-27T10:03:48.237Z,7.40
2018-05-27T10:06:15.753Z,5.60
2018-05-27T10:08:43.253Z,5.73
2018-05-27T10:11:10.768Z,5.77
2018-05-27T10:13:38.269Z,5.77
2018-05-27T10:16:05.784Z,4.57
2018-05-27T10:18:33.275Z,5.70
2018-05-27T10:21:00.806Z,5.30
2018-05-27T10:23:28.304Z,5.43
2018-05-27T10:25:55.852Z,4.67
2018-05-27T10:28:23.332Z,4.30
2018-05-27T10:30:51.617Z,5.00
2018-05-27T10:33:19.884Z,4.97
2018-05-27T10:35:48.450Z,4.73
2018-05-27T10:38:15.953Z,5.33
2018-05-27T10:40:43.470Z,5.30
2018-05-27T10:43:10.965Z,5.30
2018-05-27T10:45:38.496Z,5.07
2018-05-27T10:48:06.784Z,5.87
2018-05-27T10:50:35.045Z,4.73
2018-05-27T10:53:03.328Z,4.50
2018-05-27T10:55:31.593Z,5.00
2018-05-27T10:57:59.108Z,4.60
2018-05-27T11:00:26.635Z,4.87
2018-05-27T11:02:54.968Z,4.33
2018-05-27T11:05:22.465Z,5.17
2018-05-27T11:07:50.744Z,5.80
2018-05-27T11:10:18.249Z,4.60
2018-05-27T11:12:45.765Z,4.50
2018-05-27T11:15:13.300Z,4.90
2018-05-27T11:17:41.585Z,4.67
2018-05-27T11:20:09.844Z,5.03
2018-05-27T11:22:37.362Z,4.00
2018-05-27T11:25:04.868Z,4.23
2018-05-27T11:27:33.153Z,4.50
2018-05-27T11:30:01.423Z,4.27
2018-05-27T11:32:29.708Z,4.63
2018-05-27T11:34:57.973Z,4.40
2018-05-27T11:37:26.264Z,4.67
2018-05-27T11:39:54.528Z,4.87
2018-05-27T11:42:22.856Z,4.87
2018-05-27T11:44:50.336Z,5.00
2018-05-27T11:47:17.833Z,4.87
2018-05-27T11:49:46.108Z,5.10
2018-05-27T11:52:14.373Z,4.43
2018-05-27T11:54:42.653Z,4.40
2018-05-27T11:57:10.920Z,4.20
2018-05-27T11:59:39.204Z,4.30
2018-05-27T12:02:07.536Z,4.40
2018-05-27T12:04:35.765Z,4.30
2018-05-27T12:07:04.033Z,4.90
2018-05-27T12:09:32.383Z,4.83
2018-05-27T12:11:59.829Z,4.77
2018-05-27T12:14:27.343Z,5.17
2018-05-27T12:16:54.841Z,5.60
2018-05-27T12:19:22.357Z,4.33
2018-05-27T12:21:49.860Z,5.37
2018-05-27T12:24:17.380Z,4.83
2018-05-27T12:26:44.876Z,5.23
2018-05-27T12:29:12.400Z,4.77
2018-05-27T12:31:39.896Z,5.00
2018-05-27T12:34:07.384Z,5.87
2018-05-27T12:36:35.664Z,5.73
2018-05-27T12:39:03.932Z,6.50
2018-05-27T12:41:31.445Z,6.27
2018-05-27T12:43:58.947Z,6.30
2018-05-27T12:46:26.552Z,6.30
2018-05-27T12:48:54.050Z,6.70
2018-05-27T12:51:21.567Z,5.67
2018-05-27T12:53:49.081Z,5.67
2018-05-27T12:56:16.601Z,5.00
2018-05-27T12:58:44.096Z,5.50
2018-05-27T13:01:11.617Z,5.33
2018-05-27T13:03:39.133Z,5.80
2018-05-27T13:06:07.424Z,5.23
2018-05-27T13:08:34.929Z,5.60
2018-05-27T13:11:02.445Z,5.70
2018-05-27T13:13:29.948Z,5.50
2018-05-27T13:15:57.465Z,6.40
2018-05-27T13:18:24.969Z,6.60
2018-05-27T13:20:52.460Z,5.80
2018-05-27T13:23:20.753Z,6.10
2018-05-27T13:25:48.261Z,5.50
2018-05-27T13:28:15.777Z,6.07
2018-05-27T13:30:43.272Z,7.67
2018-05-27T13:33:10.789Z,8.80
2018-05-27T13:35:38.281Z,6.23
2018-05-27T13:38:05.802Z,7.27
2018-05-27T13:40:33.296Z,7.00
2018-05-27T13:43:00.812Z,6.53
2018-05-27T13:45:28.313Z,7.00
2018-05-27T13:47:55.847Z,6.53
2018-05-27T13:50:23.386Z,7.90
2018-05-27T13:52:51.206Z,7.73
2018-05-27T13:55:18.778Z,7.60
2018-05-27T13:57:46.316Z,7.20
2018-05-27T14:00:13.905Z,7.77
2018-05-27T14:02:41.397Z,6.90
2018-05-27T14:05:09.370Z,6.90
2018-05-27T14:07:36.900Z,6.57
2018-05-27T14:10:05.195Z,7.03
2018-05-27T14:12:33.439Z,7.00
2018-05-27T14:15:00.952Z,7.27
2018-05-27T14:17:28.444Z,6.47
2018-05-27T14:19:55.964Z,6.50
2018-05-27T14:22:23.460Z,6.27
2018-05-27T14:24:50.973Z,6.40
2018-05-27T14:27:18.469Z,6.50
2018-05-27T14:29:45.985Z,6.67
2018-05-27T14:32:13.491Z,6.13
2018-05-27T14:34:41.022Z,6.60
2018-05-27T14:37:08.533Z,6.57
2018-05-27T14:39:36.797Z,5.77
2018-05-27T14:42:05.085Z,6.50
2018-05-27T14:44:33.358Z,6.30
2018-05-27T14:47:01.640Z,5.77
2018-05-27T14:49:29.905Z,6.30
2018-05-27T14:51:58.197Z,5.60
2018-05-27T14:54:25.722Z,6.00
2018-05-27T14:56:53.244Z,6.50
2018-05-27T14:59:20.740Z,6.23
2018-05-27T15:01:48.262Z,5.43
2018-05-27T15:04:15.761Z,6.00
2018-05-27T15:06:43.281Z,6.30
2018-05-27T15:09:10.781Z,5.67
2018-05-27T15:11:38.297Z,5.87
2018-05-27T15:14:05.793Z,5.60
2018-05-27T15:16:33.293Z,5.90
2018-05-27T15:19:00.809Z,6.00
2018-05-27T15:21:28.313Z,6.73
2018-05-27T15:23:55.829Z,6.00
2018-05-27T15:26:23.328Z,5.27
2018-05-27T15:28:50.849Z,5.63
2018-05-27T15:31:19.117Z,5.03
2018-05-27T15:33:46.633Z,5.30
2018-05-27T15:36:14.133Z,4.70
2018-05-27T15:38:41.644Z,4.57
2018-05-27T15:41:09.149Z,5.13
2018-05-27T15:43:36.664Z,5.27
2018-05-27T15:46:04.166Z,4.80
2018-05-27T15:48:31.681Z,4.40
2018-05-27T15:50:59.180Z,4.33
2018-05-27T15:53:26.699Z,5.17
2018-05-27T15:55:54.203Z,5.20
2018-05-27T15:58:22.484Z,4.60
2018-05-27T16:00:50.753Z,5.17
2018-05-27T16:03:18.269Z,5.30
2018-05-27T16:05:45.768Z,5.27
2018-05-27T16:08:13.285Z,4.70
2018-05-27T16:10:40.780Z,5.63
2018-05-27T16:13:08.293Z,5.37
2018-05-27T16:15:35.789Z,5.63
2018-05-27T16:18:03.305Z,5.27
2018-05-27T16:20:30.801Z,5.57
2018-05-27T16:22:58.338Z,5.23
2018-05-27T16:25:25.844Z,4.70
2018-05-27T16:27:54.124Z,5.17
2018-05-27T16:30:22.392Z,5.27
2018-05-27T16:32:50.673Z,4.47
2018-05-27T16:35:18.940Z,5.30
2018-05-27T16:37:47.239Z,5.20
2018-05-27T16:40:14.741Z,5.30
2018-05-27T16:42:42.257Z,6.23
2018-05-27T16:45:09.758Z,5.97
2018-05-27T16:47:37.273Z,5.37
2018-05-27T16:50:04.770Z,5.43
2018-05-27T16:52:33.061Z,5.57
2018-05-27T16:55:00.553Z,5.67
2018-05-27T16:57:29.660Z,6.10
2018-05-27T16:59:57.157Z,6.40
2018-05-27T17:02:24.672Z,6.07
2018-05-27T17:04:52.933Z,6.53
2018-05-27T17:07:21.217Z,6.10
2018-05-27T17:09:49.480Z,6.27
2018-05-27T17:12:17.797Z,6.30
2018-05-27T17:14:45.282Z,5.80
2018-05-27T17:17:12.807Z,5.87
2018-05-27T17:19:40.330Z,5.93
2018-05-27T17:22:08.601Z,6.27
2018-05-27T17:24:36.116Z,6.40
2018-05-27T17:27:03.617Z,6.37
2018-05-27T17:29:31.138Z,5.77
2018-05-27T17:31:58.644Z,5.73
2018-05-27T17:34:26.924Z,6.57
2018-05-27T17:36:55.188Z,6.10
2018-05-27T17:39:22.705Z,6.07
2018-05-27T17:41:50.208Z,6.40
2018-05-27T17:44:18.488Z,6.37
2018-05-27T17:46:46.763Z,6.23
2018-05-27T17:49:15.049Z,6.00
2018-05-27T17:51:43.313Z,6.40
2018-05-27T17:54:11.604Z,5.80
2018-05-27T17:56:39.868Z,6.30
2018-05-27T17:59:08.153Z,6.47
2018-05-27T18:01:36.417Z,6.07
2018-05-27T18:04:04.704Z,5.80
2018-05-27T18:06:32.970Z,5.83
2018-05-27T18:09:01.252Z,5.87
2018-05-27T18:11:29.516Z,5.23
2018-05-27T18:13:57.029Z,5.93
2018-05-27T18:16:24.549Z,6.40
2018-05-27T18:18:52.829Z,6.60
2018-05-27T18:21:21.096Z,6.63
2018-05-27T18:23:49.436Z,6.70
2018-05-27T18:26:16.916Z,6.33
2018-05-27T18:28:44.433Z,6.10
2018-05-27T18:31:11.933Z,6.67
2018-05-27T18:33:39.443Z,6.90
2018-05-27T18:36:06.941Z,7.47
2018-05-27T18:38:34.464Z,7.63
2018-05-27T18:41:01.961Z,7.00
2018-05-27T18:43:29.496Z,7.23
2018-05-27T18:45:56.997Z,7.10
2018-05-27T18:48:25.284Z,8.03
2018-05-27T18:50:53.556Z,7.70
2018-05-27T18:53:21.836Z,7.30
2018-05-27T18:55:50.101Z,7.20
2018-05-27T18:58:18.389Z,6.73
2018-05-27T19:00:46.221Z,7.27
2018-05-27T19:03:13.733Z,6.77
2018-05-27T19:05:41.283Z,6.90
2018-05-27T19:08:08.850Z,7.27
2018-05-27T19:10:36.344Z,7.40
2018-05-27T19:13:04.118Z,8.03
2018-05-27T19:15:32.437Z,7.30
2018-05-27T19:17:59.953Z,6.93
2018-05-27T19:20:27.449Z,6.57
2018-05-27T19:22:54.973Z,6.40
2018-05-27T19:25:22.469Z,6.70
2018-05-27T19:27:50.025Z,7.87
2018-05-27T19:30:17.536Z,6.87
2018-05-27T19:32:45.035Z,7.70
2018-05-27T19:35:13.317Z,7.43
2018-05-27T19:37:40.817Z,8.20
2018-05-27T19:40:08.333Z,6.80
2018-05-27T19:42:35.836Z,7.37
2018-05-27T19:45:03.372Z,7.73
2018-05-27T19:47:30.874Z,7.60
2018-05-27T19:49:59.903Z,7.73
2018-05-27T19:52:27.938Z,7.00
2018-05-27T19:54:55.465Z,7.97
2018-05-27T19:57:23.236Z,7.07
2018-05-27T19:59:50.756Z,7.33
2018-05-27T20:02:19.403Z,7.50
2018-05-27T20:04:50.849Z,7.50
2018-05-27T20:07:19.451Z,7.30
2018-05-27T20:09:48.695Z,7.73
2018-05-27T20:12:16.198Z,7.50
2018-05-27T20:14:43.789Z,7.23
2018-05-27T20:17:11.301Z,7.70
2018-05-27T20:19:38.817Z,8.07
2018-05-27T20:22:06.365Z,7.70
2018-05-27T20:24:33.926Z,7.80
2018-05-27T20:27:01.911Z,7.73
2018-05-27T20:29:29.431Z,8.00
2018-05-27T20:31:57.729Z,7.80
2018-05-27T20:34:25.293Z,8.27
2018-05-27T20:36:52.815Z,7.90
2018-05-27T20:39:21.154Z,7.33
2018-05-27T20:41:49.391Z,7.40
2018-05-27T20:44:16.913Z,7.80
2018-05-27T20:46:44.412Z,8.00
2018-05-27T20:49:11.949Z,7.80
2018-05-27T20:51:39.521Z,8.30
2018-05-27T20:54:07.817Z,8.40
2018-05-27T20:56:35.390Z,8.90
2018-05-27T20:59:02.900Z,8.13
2018-05-27T21:01:31.161Z,8.77
2018-05-27T21:03:58.709Z,8.80
2018-05-27T21:06:26.197Z,9.40
2018-05-27T21:08:54.481Z,8.17
2018-05-27T21:11:22.749Z,9.07
2018-05-27T21:13:51.042Z,8.90
2018-05-27T21:16:19.317Z,8.57
2018-05-27T21:18:47.605Z,8.53
2018-05-27T21:21:15.100Z,9.03
2018-05-27T21:23:42.624Z,9.50
2018-05-27T21:26:10.124Z,8.63
2018-05-27T21:28:37.645Z,9.90
2018-05-27T21:31:05.146Z,8.77
2018-05-27T21:33:32.649Z,9.60
2018-05-27T21:36:00.221Z,10.33
2018-05-27T21:38:27.726Z,9.47
2018-05-27T21:40:55.244Z,9.17
2018-05-27T21:43:22.789Z,9.87
2018-05-27T21:45:50.302Z,8.43
2018-05-27T21:48:17.906Z,9.30
2018-05-27T21:50:45.423Z,8.83
2018-05-27T21:53:12.929Z,8.53
2018-05-27T21:55:40.444Z,9.37
2018-05-27T21:58:07.945Z,9.23
2018-05-27T22:00:35.464Z,9.10
2018-05-27T22:03:03.737Z,9.00
2018-05-27T22:05:31.253Z,8.20
2018-05-27T22:07:58.791Z,9.30
2018-05-27T22:10:26.478Z,10.17
2018-05-27T22:12:53.976Z,8.93
2018-05-27T22:15:21.488Z,8.97
2018-05-27T22:17:48.981Z,9.40
2018-05-27T22:20:16.497Z,9.13
2018-05-27T22:22:44.045Z,9.67
2018-05-27T22:25:11.565Z,8.60
2018-05-27T22:27:39.065Z,9.70
2018-05-27T22:30:06.581Z,9.30
2018-05-27T22:32:34.088Z,10.10
2018-05-27T22:35:01.634Z,9.73
2018-05-27T22:37:29.137Z,9.27
2018-05-27T22:39:56.657Z,9.20
2018-05-27T22:42:24.163Z,10.83
2018-05-27T22:44:51.765Z,9.00
2018-05-27T22:47:19.278Z,9.67
2018-05-27T22:49:46.813Z,9.80
2018-05-27T22:52:14.341Z,9.50
2018-05-27T22:54:41.856Z,9.53
2018-05-27T22:57:09.365Z,9.30
2018-05-27T22:59:36.908Z,10.50
2018-05-27T23:02:05.175Z,8.50
2018-05-27T23:04:33.456Z,9.20
2018-05-27T23:07:01.724Z,10.50
2018-05-27T23:09:30.025Z,10.20
2018-05-27T23:11:57.588Z,10.17
2018-05-27T23:14:25.100Z,9.60
2018-05-27T23:16:52.610Z,10.43
2018-05-27T23:19:20.161Z,9.70
2018-05-27T23:21:47.664Z,9.30
2018-05-27T23:24:15.184Z,10.00
2018-05-27T23:26:42.732Z,10.13
2018-05-27T23:29:10.237Z,9.97
2018-05-27T23:31:37.753Z,9.60
2018-05-27T23:34:05.261Z,10.40
2018-05-27T23:36:32.781Z,9.90
2018-05-27T23:39:00.282Z,10.80
2018-05-27T23:41:27.898Z,11.53
2018-05-27T23:43:55.405Z,10.80
2018-05-27T23:46:22.924Z,12.20
2018-05-27T23:48:50.421Z,10.13
2018-05-27T23:51:17.945Z,11.13
2018-05-27T23:53:45.448Z,10.37
2018-05-27T23:56:13.736Z,10.80
2018-05-27T23:58:42.004Z,9.43
